createdAt,value
2022-08-21T00:01:55.666Z,8.73
2022-08-21T00:04:29.339Z,8.65
2022-08-21T00:06:59.389Z,7.90
2022-08-21T00:09:27.732Z,8.80
2022-08-21T00:11:56.114Z,7.78
2022-08-21T00:14:24.514Z,8.88
2022-08-21T00:16:53.144Z,7.40
2022-08-21T00:19:26.915Z,10.43
2022-08-21T00:21:56.515Z,7.63
2022-08-21T00:24:26.280Z,8.65
2022-08-21T00:26:55.074Z,8.85
2022-08-21T00:29:23.390Z,8.80
2022-08-21T00:31:51.634Z,7.85
2022-08-21T00:34:20.514Z,9.50
2022-08-21T00:36:49.080Z,7.00
2022-08-21T00:39:17.274Z,9.95
2022-08-21T00:41:46.029Z,8.15
2022-08-21T00:44:17.159Z,8.18
2022-08-21T00:46:45.919Z,8.70
2022-08-21T00:49:15.554Z,8.15
2022-08-21T00:51:54.280Z,7.53
2022-08-21T00:54:27.565Z,7.18
2022-08-21T00:57:01.154Z,6.50
2022-08-21T00:59:33.391Z,6.25
2022-08-21T01:02:01.726Z,9.38
2022-08-21T01:04:30.356Z,6.82
2022-08-21T01:06:59.240Z,8.48
2022-08-21T01:09:28.031Z,5.90
2022-08-21T01:11:56.515Z,5.20
2022-08-21T01:14:26.762Z,6.90
2022-08-21T01:16:56.465Z,6.03
2022-08-21T01:19:26.281Z,8.38
2022-08-21T01:21:55.716Z,7.25
2022-08-21T01:24:24.802Z,6.85
2022-08-21T01:26:53.845Z,8.77
2022-08-21T01:29:28.337Z,4.88
2022-08-21T01:31:56.677Z,6.80
2022-08-21T01:34:25.160Z,7.35
2022-08-21T01:36:54.275Z,6.07
2022-08-21T01:39:22.595Z,6.78
2022-08-21T01:41:50.897Z,6.35
2022-08-21T01:44:23.806Z,8.57
2022-08-21T01:46:53.165Z,7.90
2022-08-21T01:49:22.185Z,7.75
2022-08-21T01:51:50.510Z,6.53
2022-08-21T01:54:19.395Z,4.95
2022-08-21T01:56:50.601Z,5.55
2022-08-21T01:59:19.235Z,7.10
2022-08-21T02:01:47.796Z,7.03
2022-08-21T02:04:16.047Z,5.88
2022-08-21T02:06:44.751Z,8.80
2022-08-21T02:09:13.955Z,5.20
2022-08-21T02:11:43.075Z,7.07
2022-08-21T02:14:13.546Z,6.30
2022-08-21T02:16:43.355Z,5.00
2022-08-21T02:19:13.482Z,8.90
2022-08-21T02:21:41.957Z,5.75
2022-08-21T02:24:11.260Z,6.35
2022-08-21T02:26:39.615Z,5.75
2022-08-21T02:29:08.267Z,6.30
2022-08-21T02:31:36.820Z,6.40
2022-08-21T02:34:05.620Z,6.28
2022-08-21T02:36:33.963Z,6.95
2022-08-21T02:39:02.255Z,7.25
2022-08-21T02:41:30.475Z,6.13
2022-08-21T02:43:58.756Z,10.90
2022-08-21T02:46:27.236Z,8.02
2022-08-21T02:48:55.644Z,12.93
2022-08-21T02:51:24.835Z,10.90
2022-08-21T02:53:53.385Z,5.57
2022-08-21T02:56:24.515Z,6.07
2022-08-21T02:58:58.045Z,9.07
2022-08-21T03:01:26.962Z,6.05
2022-08-21T03:03:55.560Z,7.75
2022-08-21T03:06:24.678Z,8.50
2022-08-21T03:08:53.060Z,6.97
2022-08-21T03:11:22.395Z,8.35
2022-08-21T03:13:50.610Z,6.32
2022-08-21T03:16:20.841Z,5.55
2022-08-21T03:18:49.865Z,5.47
2022-08-21T03:21:20.849Z,7.18
2022-08-21T03:23:49.156Z,4.65
2022-08-21T03:26:19.774Z,6.15
2022-08-21T03:28:48.195Z,6.22
2022-08-21T03:31:16.450Z,6.95
2022-08-21T03:33:44.836Z,5.15
2022-08-21T03:36:13.060Z,9.15
2022-08-21T03:38:42.287Z,8.85
2022-08-21T03:41:11.237Z,7.45
2022-08-21T03:43:40.680Z,7.70
2022-08-21T03:46:09.957Z,7.03
2022-08-21T03:48:39.081Z,7.68
2022-08-21T03:51:08.855Z,7.40
2022-08-21T03:53:37.885Z,5.80
2022-08-21T03:56:07.396Z,6.50
2022-08-21T03:58:36.312Z,5.85
2022-08-21T04:01:09.645Z,6.28
2022-08-21T04:03:39.510Z,6.23
2022-08-21T04:06:09.320Z,6.22
2022-08-21T04:08:37.650Z,6.65
2022-08-21T04:11:07.702Z,6.15
2022-08-21T04:13:35.920Z,9.20
2022-08-21T04:16:10.827Z,6.22
2022-08-21T04:18:39.176Z,6.63
2022-08-21T04:21:08.681Z,7.47
2022-08-21T04:23:39.461Z,6.15
2022-08-21T04:26:08.685Z,8.27
2022-08-21T04:28:36.995Z,7.10
2022-08-21T04:31:05.619Z,5.72
2022-08-21T04:33:34.079Z,5.95
2022-08-21T04:36:03.498Z,9.90
2022-08-21T04:38:37.448Z,7.80
2022-08-21T04:43:35.810Z,6.03
2022-08-21T04:46:04.091Z,4.97
2022-08-21T04:48:32.287Z,6.47
2022-08-21T04:51:04.356Z,7.18
2022-08-21T04:53:34.226Z,9.40
2022-08-21T04:56:10.446Z,7.50
2022-08-21T04:58:40.786Z,9.15
2022-08-21T05:01:14.496Z,8.23
2022-08-21T05:03:43.016Z,4.63
2022-08-21T05:06:16.365Z,8.30
2022-08-21T05:08:47.912Z,6.53
2022-08-21T05:11:16.760Z,6.35
2022-08-21T05:13:45.161Z,8.43
2022-08-21T05:16:13.960Z,5.03
2022-08-21T05:19:02.322Z,7.18
2022-08-21T05:21:30.601Z,6.45
2022-08-21T05:23:58.916Z,6.78
2022-08-21T05:26:27.226Z,4.30
2022-08-21T05:28:55.556Z,6.05
2022-08-21T05:31:27.145Z,6.55
2022-08-21T05:33:56.011Z,6.25
2022-08-21T05:36:24.515Z,7.57
2022-08-21T05:38:52.732Z,6.40
2022-08-21T05:41:21.000Z,6.30
2022-08-21T05:43:49.345Z,4.82
2022-08-21T05:46:18.935Z,7.25
2022-08-21T05:48:47.150Z,7.20
2022-08-21T05:51:17.225Z,6.43
2022-08-21T05:53:46.056Z,6.18
2022-08-21T05:56:15.401Z,5.13
2022-08-21T05:58:44.155Z,6.55
2022-08-21T06:01:12.616Z,6.30
2022-08-21T06:03:42.971Z,8.95
2022-08-21T06:06:12.344Z,5.85
2022-08-21T06:08:41.315Z,7.93
2022-08-21T06:11:11.721Z,7.40
2022-08-21T06:13:40.911Z,7.68
2022-08-21T06:16:12.424Z,6.22
2022-08-21T06:18:45.955Z,7.40
2022-08-21T06:21:15.400Z,7.30
2022-08-21T06:23:44.830Z,7.15
2022-08-21T06:26:15.395Z,7.03
2022-08-21T06:28:44.821Z,5.20
2022-08-21T06:31:24.676Z,5.97
2022-08-21T06:33:53.796Z,7.88
2022-08-21T06:36:23.086Z,6.15
2022-08-21T06:38:51.990Z,5.82
2022-08-21T06:41:24.313Z,7.88
2022-08-21T06:43:56.366Z,7.70
2022-08-21T06:46:26.902Z,6.20
2022-08-21T06:48:55.210Z,6.20
2022-08-21T06:51:24.525Z,5.55
2022-08-21T06:53:52.920Z,5.55
2022-08-21T06:56:21.727Z,7.25
2022-08-21T06:58:53.002Z,7.28
2022-08-21T07:01:26.476Z,5.53
2022-08-21T07:03:55.236Z,6.82
2022-08-21T07:06:23.636Z,7.22
2022-08-21T07:08:52.041Z,5.20
2022-08-21T07:11:24.035Z,6.18
2022-08-21T07:13:55.338Z,6.55
2022-08-21T07:16:24.425Z,8.05
2022-08-21T07:18:52.745Z,6.13
2022-08-21T07:21:25.220Z,8.25
2022-08-21T07:23:55.111Z,12.10
2022-08-21T07:26:25.230Z,7.30
2022-08-21T07:28:54.436Z,7.82
2022-08-21T07:31:27.953Z,7.28
2022-08-21T07:33:56.529Z,8.43
2022-08-21T07:36:25.320Z,8.85
2022-08-21T07:38:53.635Z,6.40
2022-08-21T07:41:25.635Z,6.85
2022-08-21T07:43:53.955Z,6.35
2022-08-21T07:46:22.915Z,7.85
2022-08-21T07:48:51.396Z,8.60
2022-08-21T07:51:27.511Z,8.13
2022-08-21T07:53:58.119Z,4.78
2022-08-21T07:56:26.436Z,7.63
2022-08-21T07:58:54.670Z,7.57
2022-08-21T08:01:23.123Z,11.57
2022-08-21T08:03:54.017Z,8.45
2022-08-21T08:06:22.350Z,7.00
2022-08-21T08:08:50.601Z,6.40
2022-08-21T08:11:18.810Z,6.90
2022-08-21T08:13:49.871Z,6.45
2022-08-21T08:16:19.240Z,8.80
2022-08-21T08:18:47.949Z,8.65
2022-08-21T08:21:16.835Z,6.80
2022-08-21T08:23:46.990Z,8.02
2022-08-21T08:26:16.275Z,8.05
2022-08-21T08:28:45.155Z,9.25
2022-08-21T08:31:13.636Z,8.00
2022-08-21T08:33:42.277Z,10.95
2022-08-21T08:36:17.070Z,7.78
2022-08-21T08:38:46.825Z,7.93
2022-08-21T08:41:21.955Z,9.80
2022-08-21T08:44:03.381Z,7.88
2022-08-21T08:46:43.395Z,8.93
2022-08-21T08:49:25.225Z,11.50
2022-08-21T08:52:07.350Z,8.57
2022-08-21T08:54:41.476Z,13.23
2022-08-21T08:57:16.585Z,6.57
2022-08-21T08:59:52.116Z,9.45
2022-08-21T09:02:24.945Z,8.63
2022-08-21T09:04:56.040Z,8.20
2022-08-21T09:07:57.961Z,9.27
2022-08-21T09:10:50.885Z,10.65
2022-08-21T09:13:38.363Z,8.60
2022-08-21T09:16:38.275Z,12.18
2022-08-21T09:19:27.885Z,9.30
2022-08-21T09:22:12.685Z,9.90
2022-08-21T09:27:24.036Z,11.00
2022-08-21T09:29:56.146Z,8.95
2022-08-21T09:32:37.474Z,8.43
2022-08-21T09:35:14.995Z,12.35
2022-08-21T09:37:58.594Z,12.25
2022-08-21T09:40:39.618Z,10.38
2022-08-21T09:43:13.960Z,13.18
2022-08-21T09:45:44.835Z,7.90
2022-08-21T09:48:27.109Z,9.38
2022-08-21T09:51:16.040Z,11.13
2022-08-21T09:53:52.036Z,11.02
2022-08-21T09:56:48.355Z,11.25
2022-08-21T09:59:36.368Z,8.02
2022-08-21T10:02:24.040Z,14.50
2022-08-21T10:04:58.925Z,12.88
2022-08-21T10:07:30.277Z,10.82
2022-08-21T10:10:27.578Z,11.07
2022-08-21T10:13:13.300Z,13.75
2022-08-21T10:16:11.082Z,14.32
2022-08-21T10:18:44.762Z,13.70
2022-08-21T10:21:21.915Z,10.68
2022-08-21T10:23:59.237Z,10.45
2022-08-21T10:26:48.966Z,10.82
2022-08-21T10:29:38.596Z,12.50
2022-08-21T10:32:17.287Z,13.05
2022-08-21T10:35:15.310Z,10.13
2022-08-21T10:38:33.541Z,14.25
2022-08-21T10:41:15.555Z,13.00
2022-08-21T10:44:13.232Z,14.38
2022-08-21T10:47:04.835Z,14.13
2022-08-21T10:49:42.350Z,14.57
2022-08-21T10:52:34.760Z,16.48
2022-08-21T10:55:12.355Z,16.60
2022-08-21T10:58:10.595Z,11.73
2022-08-21T11:00:53.340Z,11.10
2022-08-21T11:03:41.315Z,12.63
2022-08-21T11:06:20.450Z,10.80
2022-08-21T11:08:56.001Z,9.43
2022-08-21T11:11:29.770Z,12.43
2022-08-21T11:14:39.470Z,15.65
2022-08-21T11:17:21.872Z,13.23
2022-08-21T11:20:07.305Z,16.15
2022-08-21T11:22:58.910Z,9.10
2022-08-21T11:25:37.474Z,8.95
2022-08-21T11:28:05.795Z,12.38
2022-08-21T11:31:14.436Z,12.05
2022-08-21T11:34:00.835Z,10.77
2022-08-21T11:36:49.805Z,10.00
2022-08-21T11:40:00.525Z,10.45
2022-08-21T11:42:49.627Z,10.60
2022-08-21T11:45:29.635Z,12.55
2022-08-21T11:48:12.837Z,11.52
2022-08-21T11:50:44.356Z,12.27
2022-08-21T11:53:48.894Z,16.20
2022-08-21T11:56:34.115Z,10.75
2022-08-21T11:59:09.155Z,12.23
2022-08-21T12:01:44.082Z,11.73
2022-08-21T12:04:36.675Z,12.48
2022-08-21T12:07:40.194Z,12.68
2022-08-21T12:10:15.789Z,13.32
2022-08-21T12:12:46.041Z,12.77
2022-08-21T12:15:23.000Z,10.07
2022-08-21T12:18:32.674Z,10.85
2022-08-21T12:21:27.407Z,8.07
2022-08-21T12:24:02.282Z,10.55
2022-08-21T12:26:51.254Z,12.68
2022-08-21T12:29:19.510Z,9.02
2022-08-21T12:32:13.315Z,12.43
2022-08-21T12:34:44.995Z,10.82
2022-08-21T12:37:34.280Z,12.80
2022-08-21T12:40:12.025Z,10.15
2022-08-21T12:42:56.515Z,11.23
2022-08-21T12:45:35.716Z,12.38
2022-08-21T12:48:27.554Z,12.80
2022-08-21T12:51:01.164Z,10.15
2022-08-21T12:53:47.074Z,10.57
2022-08-21T12:56:19.793Z,11.73
2022-08-21T12:59:07.235Z,12.40
2022-08-21T13:01:50.180Z,12.75
2022-08-21T13:04:23.554Z,14.65
2022-08-21T13:06:56.202Z,12.68
2022-08-21T13:09:32.208Z,9.60
2022-08-21T13:12:01.474Z,12.90
2022-08-21T13:14:46.057Z,10.85
2022-08-21T13:17:23.184Z,12.55
2022-08-21T13:20:26.921Z,11.65
2022-08-21T13:22:55.869Z,10.55
2022-08-21T13:25:29.794Z,11.32
2022-08-21T13:28:07.570Z,9.52
2022-08-21T13:30:36.430Z,7.18
2022-08-21T13:33:12.908Z,8.45
2022-08-21T13:35:53.036Z,12.18
2022-08-21T13:38:35.175Z,9.50
2022-08-21T13:41:23.880Z,12.07
2022-08-21T13:44:03.404Z,12.52
2022-08-21T13:46:35.949Z,9.52
2022-08-21T13:49:07.879Z,11.77
2022-08-21T13:51:37.114Z,9.43
2022-08-21T13:54:37.795Z,10.25
2022-08-21T13:57:06.520Z,10.20
2022-08-21T13:59:37.550Z,9.45
2022-08-21T14:02:20.669Z,14.07
2022-08-21T14:05:03.715Z,9.90
2022-08-21T14:07:36.285Z,10.57
2022-08-21T14:10:24.835Z,10.98
2022-08-21T14:13:05.866Z,10.48
2022-08-21T14:15:36.920Z,8.23
2022-08-21T14:18:17.553Z,11.55
2022-08-21T14:20:47.080Z,9.82
2022-08-21T14:23:27.880Z,11.80
2022-08-21T14:26:02.761Z,8.82
2022-08-21T14:28:42.442Z,11.02
2022-08-21T14:31:19.519Z,12.52
2022-08-21T14:33:48.355Z,10.40
2022-08-21T14:36:17.158Z,9.05
2022-08-21T14:38:45.445Z,8.30
2022-08-21T14:41:31.960Z,7.60
2022-08-21T14:44:06.098Z,12.40
2022-08-21T14:46:45.800Z,10.20
2022-08-21T14:49:24.994Z,9.00
2022-08-21T14:51:59.224Z,7.32
2022-08-21T14:57:11.239Z,8.77
2022-08-21T14:59:41.001Z,8.20
2022-08-21T15:02:11.079Z,9.55
2022-08-21T15:04:39.877Z,7.25
2022-08-21T15:07:08.355Z,6.80
2022-08-21T15:09:36.679Z,8.52
2022-08-21T15:12:06.276Z,6.80
2022-08-21T15:14:38.150Z,9.13
2022-08-21T15:17:08.665Z,8.07
2022-08-21T15:19:37.395Z,6.05
2022-08-21T15:22:06.030Z,14.13
2022-08-21T15:24:43.899Z,8.90
2022-08-21T15:27:13.645Z,6.97
2022-08-21T15:29:45.260Z,8.48
2022-08-21T15:32:27.076Z,11.55
2022-08-21T15:34:56.105Z,8.02
2022-08-21T15:37:25.545Z,10.35
2022-08-21T15:39:54.518Z,8.07
2022-08-21T15:42:23.961Z,7.28
2022-08-21T15:44:53.326Z,7.85
2022-08-21T15:47:27.076Z,5.88
2022-08-21T15:49:55.395Z,6.85
2022-08-21T15:52:25.160Z,7.88
2022-08-21T15:54:54.415Z,6.97
2022-08-21T15:57:27.234Z,5.70
2022-08-21T16:00:13.545Z,7.07
2022-08-21T16:02:46.675Z,6.40
2022-08-21T16:05:18.159Z,7.90
2022-08-21T16:07:47.875Z,8.10
2022-08-21T16:10:18.440Z,4.60
2022-08-21T16:12:51.025Z,5.70
2022-08-21T16:15:20.870Z,5.13
2022-08-21T16:17:51.152Z,7.28
2022-08-21T16:20:24.430Z,5.82
2022-08-21T16:22:53.550Z,7.68
2022-08-21T16:25:21.870Z,4.68
2022-08-21T16:27:59.327Z,5.03
2022-08-21T16:30:29.306Z,3.95
2022-08-21T16:32:58.435Z,5.25
2022-08-21T16:35:26.879Z,6.28
2022-08-21T16:37:55.349Z,4.82
2022-08-21T16:40:29.640Z,6.88
2022-08-21T16:42:58.270Z,5.38
2022-08-21T16:45:29.897Z,4.65
2022-08-21T16:48:01.961Z,5.38
2022-08-21T16:50:30.283Z,6.72
2022-08-21T16:52:58.653Z,6.63
2022-08-21T16:55:27.609Z,4.38
2022-08-21T16:57:56.980Z,6.40
2022-08-21T17:00:25.766Z,5.75
2022-08-21T17:02:56.835Z,4.10
2022-08-21T17:05:25.127Z,6.07
2022-08-21T17:07:53.321Z,5.72
2022-08-21T17:10:22.434Z,5.78
2022-08-21T17:12:58.227Z,4.72
2022-08-21T17:15:31.075Z,7.78
2022-08-21T17:18:00.275Z,5.68
2022-08-21T17:20:29.055Z,5.03
2022-08-21T17:22:57.310Z,4.25
2022-08-21T17:25:26.185Z,4.93
2022-08-21T17:27:55.449Z,6.10
2022-08-21T17:30:24.530Z,4.68
2022-08-21T17:32:55.826Z,4.95
2022-08-21T17:35:24.360Z,5.32
2022-08-21T17:37:54.436Z,4.93
2022-08-21T17:40:23.138Z,6.40
2022-08-21T17:42:51.631Z,5.00
2022-08-21T17:45:21.310Z,5.90
2022-08-21T17:47:50.085Z,4.00
2022-08-21T17:50:23.132Z,4.20
2022-08-21T17:52:51.624Z,4.85
2022-08-21T17:55:24.200Z,3.67
2022-08-21T17:57:54.120Z,4.13
2022-08-21T18:00:25.376Z,5.50
2022-08-21T18:03:06.494Z,5.22
2022-08-21T18:05:34.915Z,4.32
2022-08-21T18:08:03.636Z,4.65
2022-08-21T18:10:32.035Z,4.53
2022-08-21T18:13:04.465Z,4.45
2022-08-21T18:15:33.974Z,3.60
2022-08-21T18:18:03.555Z,5.28
2022-08-21T18:20:31.954Z,5.90
2022-08-21T18:23:00.923Z,4.25
2022-08-21T18:25:30.122Z,4.28
2022-08-21T18:27:59.715Z,4.70
2022-08-21T18:30:28.047Z,5.50
2022-08-21T18:32:56.834Z,3.28
2022-08-21T18:35:25.256Z,7.32
2022-08-21T18:37:53.610Z,4.95
2022-08-21T18:40:22.333Z,5.82
2022-08-21T18:42:55.553Z,4.50
2022-08-21T18:45:25.386Z,5.38
2022-08-21T18:47:56.431Z,5.38
2022-08-21T18:50:28.943Z,6.65
2022-08-21T18:52:57.801Z,4.75
2022-08-21T18:55:26.121Z,4.70
2022-08-21T18:57:58.122Z,3.30
2022-08-21T19:00:31.402Z,5.50
2022-08-21T19:03:00.526Z,7.00
2022-08-21T19:05:29.605Z,5.97
2022-08-21T19:07:58.795Z,8.93
2022-08-21T19:10:28.886Z,5.75
2022-08-21T19:13:00.758Z,5.72
2022-08-21T19:15:30.354Z,12.48
2022-08-21T19:18:00.528Z,8.48
2022-08-21T19:20:37.380Z,6.57
2022-08-21T19:23:07.709Z,6.07
2022-08-21T19:25:37.395Z,7.45
2022-08-21T19:28:11.895Z,4.80
2022-08-21T19:30:45.872Z,6.95
2022-08-21T19:33:27.236Z,6.38
2022-08-21T19:35:55.715Z,7.70
2022-08-21T19:38:24.195Z,10.65
2022-08-21T19:40:54.115Z,6.07
2022-08-21T19:43:23.312Z,7.25
2022-08-21T19:45:58.115Z,6.68
2022-08-21T19:48:27.004Z,8.13
2022-08-21T19:50:55.572Z,5.20
2022-08-21T19:53:23.880Z,6.93
2022-08-21T19:55:52.347Z,7.00
2022-08-21T19:58:35.310Z,5.88
2022-08-21T20:01:12.463Z,5.90
2022-08-21T20:03:54.221Z,6.38
2022-08-21T20:06:26.195Z,7.38
2022-08-21T20:08:57.000Z,6.78
2022-08-21T20:11:33.164Z,7.22
2022-08-21T20:14:02.510Z,5.97
2022-08-21T20:16:31.558Z,6.85
2022-08-21T20:19:00.520Z,4.90
2022-08-21T20:21:28.922Z,3.72
2022-08-21T20:23:58.595Z,3.67
2022-08-21T20:26:29.957Z,4.45
2022-08-21T20:28:58.518Z,4.68
2022-08-21T20:31:28.997Z,4.00
2022-08-21T20:33:58.605Z,4.45
2022-08-21T20:36:27.526Z,5.15
2022-08-21T20:38:55.875Z,5.10
2022-08-21T20:41:31.034Z,3.55
2022-08-21T20:44:01.475Z,6.70
2022-08-21T20:46:33.283Z,3.33
2022-08-21T20:49:02.927Z,5.15
2022-08-21T20:51:45.916Z,3.35
2022-08-21T20:54:49.798Z,3.08
2022-08-21T20:57:51.111Z,5.05
2022-08-21T21:00:24.040Z,7.63
2022-08-21T21:03:06.281Z,4.33
2022-08-21T21:05:44.996Z,4.72
2022-08-21T21:08:31.496Z,4.20
2022-08-21T21:11:27.398Z,3.30
2022-08-21T21:14:09.481Z,3.15
2022-08-21T21:17:12.797Z,4.82
2022-08-21T21:19:40.981Z,4.85
2022-08-21T21:22:16.995Z,3.78
2022-08-21T21:24:52.465Z,4.88
2022-08-21T21:27:49.011Z,3.72
2022-08-21T21:30:24.355Z,5.45
2022-08-21T21:32:54.321Z,4.15
2022-08-21T21:35:49.209Z,5.05
2022-08-21T21:38:23.882Z,7.43
2022-08-21T21:41:07.871Z,4.47
2022-08-21T21:43:56.041Z,5.25
2022-08-21T21:46:36.204Z,7.13
2022-08-21T21:49:18.121Z,4.45
2022-08-21T21:52:07.325Z,6.25
2022-08-21T21:55:01.800Z,5.07
2022-08-21T21:57:53.565Z,4.63
2022-08-21T22:00:27.527Z,3.97
2022-08-21T22:03:13.150Z,6.90
2022-08-21T22:05:44.490Z,7.00
2022-08-21T22:08:40.611Z,6.10
2022-08-21T22:12:09.306Z,4.47
2022-08-21T22:14:41.232Z,4.75
2022-08-21T22:17:44.195Z,3.83
2022-08-21T22:22:56.838Z,3.88
2022-08-21T22:25:31.360Z,4.60
2022-08-21T22:28:06.961Z,4.32
2022-08-21T22:30:48.113Z,6.30
2022-08-21T22:33:23.560Z,4.95
2022-08-21T22:35:54.995Z,4.65
2022-08-21T22:38:31.235Z,3.38
2022-08-21T22:41:23.875Z,3.38
2022-08-21T22:44:05.826Z,4.65
2022-08-21T22:46:43.075Z,5.13
2022-08-21T22:49:27.085Z,5.07
2022-08-21T22:52:07.876Z,3.85
2022-08-21T22:54:45.283Z,3.22
2022-08-21T22:57:29.815Z,3.75
2022-08-21T23:00:11.720Z,3.83
2022-08-21T23:02:44.356Z,5.07
2022-08-21T23:05:26.270Z,5.40
2022-08-21T23:07:56.346Z,4.03
2022-08-21T23:10:42.750Z,2.83
2022-08-21T23:13:19.125Z,3.38
2022-08-21T23:15:59.625Z,4.68
2022-08-21T23:18:36.639Z,4.45
2022-08-21T23:21:28.871Z,3.00
2022-08-21T23:24:06.756Z,4.93
2022-08-21T23:27:01.315Z,2.90
2022-08-21T23:29:38.918Z,3.40
2022-08-21T23:32:51.543Z,5.30
2022-08-21T23:36:34.435Z,5.55
2022-08-21T23:39:20.995Z,4.03
2022-08-21T23:42:30.756Z,3.47
2022-08-21T23:45:13.489Z,3.55
2022-08-21T23:47:42.510Z,4.45
2022-08-21T23:50:32.840Z,4.60
2022-08-21T23:53:24.516Z,3.67
2022-08-21T23:56:21.596Z,5.57
2022-08-21T23:59:04.260Z,5.57
